createdAt,value
2018-08-13T00:00:01.584Z,2.10
2018-08-13T00:02:30.323Z,3.23
2018-08-13T00:04:59.035Z,1.93
2018-08-13T00:07:27.742Z,1.80
2018-08-13T00:09:56.521Z,2.33
2018-08-13T00:12:25.300Z,2.73
2018-08-13T00:14:54.005Z,2.60
2018-08-13T00:17:22.704Z,2.60
2018-08-13T00:19:51.451Z,2.80
2018-08-13T00:22:20.156Z,2.90
2018-08-13T00:24:48.851Z,3.03
2018-08-13T00:27:17.540Z,2.80
2018-08-13T00:29:46.239Z,2.47
2018-08-13T00:32:14.964Z,2.80
2018-08-13T00:34:43.732Z,2.73
2018-08-13T00:37:12.439Z,2.93
2018-08-13T00:39:41.165Z,3.00
2018-08-13T00:42:09.905Z,2.97
2018-08-13T00:44:38.645Z,3.00
2018-08-13T00:47:07.448Z,2.97
2018-08-13T00:49:36.212Z,3.17
2018-08-13T00:52:04.980Z,3.30
2018-08-13T00:54:33.718Z,3.37
2018-08-13T00:57:02.505Z,3.13
2018-08-13T00:59:31.256Z,3.10
2018-08-13T01:01:59.981Z,3.40
2018-08-13T01:04:28.687Z,2.70
2018-08-13T01:06:57.403Z,3.17
2018-08-13T01:09:26.171Z,2.93
2018-08-13T01:11:54.893Z,2.57
2018-08-13T01:14:23.571Z,3.00
2018-08-13T01:16:52.342Z,3.60
2018-08-13T01:19:21.159Z,2.67
2018-08-13T01:21:49.911Z,2.60
2018-08-13T01:24:18.729Z,2.70
2018-08-13T01:26:47.459Z,2.80
2018-08-13T01:29:16.193Z,2.80
2018-08-13T01:31:45.036Z,2.80
2018-08-13T01:34:13.754Z,3.30
2018-08-13T01:36:42.553Z,2.90
2018-08-13T01:39:11.685Z,2.90
2018-08-13T01:41:40.415Z,2.80
2018-08-13T01:44:09.148Z,2.30
2018-08-13T01:46:37.858Z,2.27
2018-08-13T01:49:06.551Z,2.50
2018-08-13T01:51:35.264Z,2.50
2018-08-13T01:54:04.047Z,2.50
2018-08-13T01:56:32.768Z,2.23
2018-08-13T01:59:01.497Z,2.40
2018-08-13T02:18:12.684Z,2.60
2018-08-13T02:20:41.367Z,2.93
2018-08-13T02:23:10.071Z,2.83
2018-08-13T02:25:38.798Z,2.43
2018-08-13T02:28:07.481Z,2.40
2018-08-13T02:30:36.199Z,2.70
2018-08-13T02:33:04.958Z,2.97
2018-08-13T02:35:33.795Z,2.70
2018-08-13T02:38:02.471Z,3.03
2018-08-13T02:40:31.281Z,3.10
2018-08-13T02:43:00.034Z,2.80
2018-08-13T02:45:28.743Z,2.80
2018-08-13T02:47:57.494Z,3.33
2018-08-13T02:50:26.194Z,3.70
2018-08-13T02:52:54.900Z,3.10
2018-08-13T02:55:23.612Z,2.97
2018-08-13T02:57:52.322Z,3.00
2018-08-13T03:00:21.022Z,2.87
2018-08-13T03:02:49.750Z,2.70
2018-08-13T03:05:18.460Z,2.90
2018-08-13T03:07:47.208Z,2.90
2018-08-13T03:10:16.000Z,2.47
2018-08-13T03:12:44.733Z,2.50
2018-08-13T03:15:14.985Z,2.57
2018-08-13T03:17:43.759Z,2.27
2018-08-13T03:20:12.496Z,2.37
2018-08-13T03:22:41.256Z,1.93
2018-08-13T03:25:10.749Z,2.57
2018-08-13T03:27:39.459Z,2.07
2018-08-13T03:30:10.392Z,2.37
2018-08-13T03:32:39.452Z,2.00
2018-08-13T03:35:08.292Z,1.70
2018-08-13T03:37:37.040Z,1.73
2018-08-13T03:40:08.194Z,2.10
2018-08-13T03:42:36.932Z,1.90
2018-08-13T03:45:07.204Z,1.83
2018-08-13T03:47:35.931Z,1.80
2018-08-13T03:50:05.461Z,1.80
2018-08-13T03:52:34.192Z,2.10
2018-08-13T03:55:03.033Z,1.80
2018-08-13T03:57:31.852Z,1.80
2018-08-13T04:00:00.633Z,2.00
2018-08-13T04:02:29.426Z,1.90
2018-08-13T04:04:58.215Z,1.87
2018-08-13T04:07:26.971Z,2.30
2018-08-13T04:09:55.706Z,2.07
2018-08-13T04:12:24.429Z,2.00
2018-08-13T04:14:53.152Z,2.43
2018-08-13T04:17:21.831Z,2.20
2018-08-13T04:19:50.521Z,1.90
2018-08-13T04:22:19.224Z,2.03
2018-08-13T04:24:47.928Z,2.07
2018-08-13T04:27:16.640Z,2.47
2018-08-13T04:29:45.340Z,1.83
2018-08-13T04:32:14.146Z,2.03
2018-08-13T04:34:43.772Z,2.00
2018-08-13T04:37:12.504Z,1.87
2018-08-13T04:39:41.220Z,2.00
2018-08-13T04:42:09.992Z,2.40
2018-08-13T04:44:38.715Z,1.70
2018-08-13T04:47:07.540Z,2.10
2018-08-13T04:49:36.368Z,1.80
2018-08-13T04:52:05.223Z,2.30
2018-08-13T04:54:33.909Z,1.67
2018-08-13T04:57:02.664Z,1.73
2018-08-13T04:59:31.509Z,2.00
2018-08-13T05:02:00.855Z,2.00
2018-08-13T05:04:29.595Z,2.30
2018-08-13T05:06:58.311Z,2.20
2018-08-13T05:09:27.008Z,1.73
2018-08-13T05:11:56.351Z,2.33
2018-08-13T05:14:25.092Z,1.90
2018-08-13T05:16:53.784Z,2.23
2018-08-13T05:19:22.585Z,2.10
2018-08-13T05:21:51.276Z,1.93
2018-08-13T05:24:20.034Z,1.73
2018-08-13T05:26:48.720Z,1.77
2018-08-13T05:29:17.469Z,2.10
2018-08-13T05:31:46.175Z,2.27
2018-08-13T05:34:14.903Z,2.47
2018-08-13T05:36:43.612Z,2.37
2018-08-13T05:39:13.124Z,2.10
2018-08-13T05:41:42.002Z,2.40
2018-08-13T05:44:10.768Z,2.70
2018-08-13T05:46:39.522Z,2.13
2018-08-13T05:49:08.229Z,2.37
2018-08-13T05:51:36.954Z,2.97
2018-08-13T05:54:05.704Z,2.60
2018-08-13T05:56:34.484Z,2.63
2018-08-13T05:59:03.247Z,3.10
2018-08-13T06:01:32.041Z,2.10
2018-08-13T06:04:00.796Z,2.30
2018-08-13T06:06:29.533Z,2.70
2018-08-13T06:08:58.248Z,2.90
2018-08-13T06:11:27.090Z,3.00
2018-08-13T06:13:55.712Z,2.63
2018-08-13T06:16:24.417Z,2.83
2018-08-13T06:18:53.187Z,2.87
2018-08-13T06:21:21.858Z,2.77
2018-08-13T06:23:50.571Z,3.00
2018-08-13T06:26:19.329Z,2.83
2018-08-13T06:28:48.054Z,2.93
2018-08-13T06:31:16.754Z,2.17
2018-08-13T06:33:45.472Z,2.27
2018-08-13T06:36:14.212Z,2.07
2018-08-13T06:38:42.958Z,1.83
2018-08-13T06:41:11.692Z,2.50
2018-08-13T06:43:40.420Z,2.00
2018-08-13T06:46:09.157Z,2.10
2018-08-13T06:48:37.912Z,2.50
2018-08-13T06:51:06.752Z,2.43
2018-08-13T06:53:36.631Z,2.90
2018-08-13T06:56:05.444Z,2.80
2018-08-13T06:58:34.191Z,4.60
2018-08-13T07:01:02.937Z,3.77
2018-08-13T07:03:32.154Z,3.20
2018-08-13T07:06:00.850Z,2.70
2018-08-13T07:08:29.554Z,3.00
2018-08-13T07:10:58.347Z,3.50
2018-08-13T07:13:27.091Z,2.97
2018-08-13T07:15:55.841Z,3.10
2018-08-13T07:18:24.588Z,3.53
2018-08-13T07:20:53.363Z,3.67
2018-08-13T07:23:22.071Z,3.47
2018-08-13T07:25:50.801Z,3.70
2018-08-13T07:28:19.509Z,3.60
2018-08-13T07:30:48.300Z,3.70
2018-08-13T07:33:17.078Z,3.60
2018-08-13T07:35:45.834Z,3.47
2018-08-13T07:38:14.570Z,3.40
2018-08-13T07:40:43.307Z,2.90
2018-08-13T07:43:11.988Z,3.23
2018-08-13T07:45:40.712Z,3.13
2018-08-13T07:48:09.524Z,3.40
2018-08-13T07:50:38.262Z,3.23
2018-08-13T07:53:07.134Z,3.00
2018-08-13T07:55:35.864Z,2.60
2018-08-13T07:58:04.694Z,3.53
2018-08-13T08:00:33.388Z,3.13
2018-08-13T08:03:02.256Z,3.23
2018-08-13T08:05:31.015Z,2.97
2018-08-13T08:07:59.771Z,2.90
2018-08-13T08:10:28.544Z,3.17
2018-08-13T08:12:57.284Z,3.70
2018-08-13T08:15:25.996Z,3.50
2018-08-13T08:17:54.717Z,3.47
2018-08-13T08:20:23.547Z,3.60
2018-08-13T08:22:52.296Z,3.70
2018-08-13T08:25:22.035Z,3.60
2018-08-13T08:27:50.820Z,4.17
2018-08-13T08:30:19.655Z,4.33
2018-08-13T08:32:48.443Z,4.23
2018-08-13T08:35:18.003Z,4.30
2018-08-13T08:37:46.836Z,3.87
2018-08-13T08:40:17.743Z,3.60
2018-08-13T08:42:46.632Z,4.33
2018-08-13T08:45:21.588Z,3.87
2018-08-13T08:47:50.779Z,4.53
2018-08-13T08:50:19.572Z,4.40
2018-08-13T08:52:48.536Z,4.83
2018-08-13T08:55:18.063Z,4.20
2018-08-13T08:57:47.584Z,4.17
2018-08-13T09:00:19.879Z,4.73
2018-08-13T09:02:48.569Z,3.60
2018-08-13T09:05:17.480Z,4.27
2018-08-13T09:07:46.627Z,4.30
2018-08-13T09:10:16.286Z,4.43
2018-08-13T09:12:45.052Z,4.50
2018-08-13T09:15:15.504Z,4.00
2018-08-13T09:17:55.908Z,5.00
2018-08-13T09:20:35.597Z,3.93
2018-08-13T09:23:15.170Z,3.40
2018-08-13T09:25:54.902Z,3.63
2018-08-13T09:28:34.496Z,4.30
2018-08-13T09:31:14.412Z,3.93
2018-08-13T09:33:53.952Z,3.93
2018-08-13T09:36:22.695Z,3.90
2018-08-13T09:38:51.410Z,4.07
2018-08-13T09:41:20.661Z,5.10
2018-08-13T09:43:50.349Z,4.73
2018-08-13T09:46:19.040Z,4.00
2018-08-13T09:48:47.770Z,5.10
2018-08-13T09:51:16.498Z,5.20
2018-08-13T09:53:45.260Z,5.00
2018-08-13T09:56:13.977Z,4.67
2018-08-13T09:58:42.713Z,4.40
2018-08-13T10:01:12.624Z,3.97
2018-08-13T10:03:41.329Z,3.50
2018-08-13T10:06:10.112Z,3.97
2018-08-13T10:08:38.865Z,3.37
2018-08-13T10:11:07.614Z,3.63
2018-08-13T10:13:36.354Z,3.90
2018-08-13T10:16:05.141Z,3.80
2018-08-13T10:18:33.837Z,3.63
2018-08-13T10:21:02.581Z,4.60
2018-08-13T10:23:31.380Z,4.80
2018-08-13T10:26:00.079Z,4.57
2018-08-13T10:28:28.780Z,4.63
2018-08-13T10:30:57.479Z,4.90
2018-08-13T10:33:26.206Z,5.20
2018-08-13T10:35:54.935Z,4.70
2018-08-13T10:38:23.655Z,3.60
2018-08-13T10:40:52.415Z,3.07
2018-08-13T10:43:21.150Z,3.43
2018-08-13T10:45:49.923Z,3.10
2018-08-13T10:48:18.670Z,3.77
2018-08-13T10:50:47.508Z,2.70
2018-08-13T10:53:16.293Z,3.00
2018-08-13T10:55:44.992Z,3.90
2018-08-13T10:58:13.745Z,3.40
2018-08-13T11:00:42.470Z,3.20
2018-08-13T11:05:44.420Z,3.90
2018-08-13T11:08:13.242Z,3.03
2018-08-13T11:10:41.945Z,3.53
2018-08-13T11:13:10.677Z,3.30
2018-08-13T11:15:40.200Z,3.77
2018-08-13T11:18:08.936Z,4.47
2018-08-13T11:20:37.629Z,3.90
2018-08-13T11:23:06.428Z,3.60
2018-08-13T11:25:35.733Z,3.93
2018-08-13T11:28:04.521Z,3.30
2018-08-13T11:30:33.240Z,3.40
2018-08-13T11:33:01.957Z,3.13
2018-08-13T11:35:30.700Z,3.10
2018-08-13T11:38:00.264Z,3.73
2018-08-13T11:40:28.976Z,3.10
2018-08-13T11:42:57.739Z,3.17
2018-08-13T11:45:26.459Z,2.80
2018-08-13T11:47:55.170Z,3.03
2018-08-13T11:50:23.907Z,3.00
2018-08-13T11:52:52.611Z,3.17
2018-08-13T11:55:21.405Z,2.47
2018-08-13T11:57:50.850Z,2.57
2018-08-13T12:00:19.679Z,2.80
2018-08-13T12:02:48.456Z,2.80
2018-08-13T12:05:17.441Z,2.80
2018-08-13T12:07:46.407Z,3.20
2018-08-13T12:10:15.620Z,3.60
2018-08-13T12:12:44.848Z,3.03
2018-08-13T12:15:14.213Z,3.17
2018-08-13T12:17:43.175Z,3.37
2018-08-13T12:20:13.709Z,2.80
2018-08-13T12:22:43.839Z,3.00
2018-08-13T12:25:16.983Z,3.10
2018-08-13T12:27:45.741Z,2.40
2018-08-13T12:30:14.513Z,2.83
2018-08-13T12:32:43.243Z,2.40
2018-08-13T12:35:11.993Z,2.70
2018-08-13T12:37:40.688Z,2.97
2018-08-13T12:40:10.500Z,3.03
2018-08-13T12:42:39.891Z,2.67
2018-08-13T12:45:12.365Z,2.70
2018-08-13T12:47:41.168Z,2.60
2018-08-13T12:50:13.140Z,3.03
2018-08-13T12:52:42.719Z,2.83
2018-08-13T12:55:11.873Z,2.77
2018-08-13T12:57:40.723Z,3.00
2018-08-13T13:00:11.953Z,2.90
2018-08-13T13:02:41.008Z,2.60
2018-08-13T13:05:11.051Z,2.70
2018-08-13T13:07:39.956Z,2.77
2018-08-13T13:10:11.228Z,2.70
2018-08-13T13:12:40.640Z,2.87
2018-08-13T13:15:10.988Z,2.80
2018-08-13T13:17:40.184Z,2.93
2018-08-13T13:20:14.575Z,3.40
2018-08-13T13:22:43.344Z,2.70
2018-08-13T13:25:12.094Z,3.23
2018-08-13T13:27:40.759Z,3.30
2018-08-13T13:30:11.889Z,3.30
2018-08-13T13:32:40.687Z,3.13
2018-08-13T13:35:10.784Z,3.33
2018-08-13T13:37:39.545Z,3.60
2018-08-13T13:40:10.384Z,2.90
2018-08-13T13:42:39.519Z,4.07
2018-08-13T13:45:09.198Z,3.47
2018-08-13T13:47:38.190Z,3.40
2018-08-13T13:50:08.292Z,3.83
2018-08-13T13:52:37.017Z,3.80
2018-08-13T13:55:06.292Z,4.13
2018-08-13T13:57:35.096Z,4.67
2018-08-13T14:00:04.029Z,3.33
2018-08-13T14:02:32.804Z,4.67
2018-08-13T14:05:01.569Z,4.80
2018-08-13T14:07:30.308Z,4.33
2018-08-13T14:09:59.015Z,4.70
2018-08-13T14:12:27.732Z,5.33
2018-08-13T14:14:56.411Z,4.83
2018-08-13T14:17:25.160Z,5.27
2018-08-13T14:19:53.860Z,4.93
2018-08-13T14:22:23.610Z,5.33
2018-08-13T14:24:52.367Z,4.93
2018-08-13T14:27:21.085Z,5.33
2018-08-13T14:29:50.547Z,6.00
2018-08-13T14:32:19.279Z,5.10
2018-08-13T14:34:48.070Z,5.10
2018-08-13T14:37:16.703Z,5.33
2018-08-13T14:39:45.522Z,5.07
2018-08-13T14:42:14.196Z,4.10
2018-08-13T14:44:42.907Z,4.27
2018-08-13T14:47:11.670Z,5.57
2018-08-13T14:49:40.373Z,5.87
2018-08-13T14:52:09.127Z,5.60
2018-08-13T14:54:37.840Z,4.60
2018-08-13T14:57:06.644Z,5.47
2018-08-13T14:59:35.462Z,5.50
2018-08-13T15:02:04.214Z,4.60
2018-08-13T15:04:32.969Z,4.40
2018-08-13T15:07:01.737Z,4.00
2018-08-13T15:09:30.425Z,4.33
2018-08-13T15:11:59.145Z,4.27
2018-08-13T15:14:28.362Z,5.57
2018-08-13T15:16:57.113Z,5.57
2018-08-13T15:19:25.852Z,6.10
2018-08-13T15:21:54.551Z,6.10
2018-08-13T15:24:23.261Z,6.80
2018-08-13T15:26:52.836Z,6.73
2018-08-13T15:29:21.584Z,6.43
2018-08-13T15:31:50.300Z,6.07
2018-08-13T15:34:18.993Z,6.30
2018-08-13T15:36:47.764Z,6.40
2018-08-13T15:39:16.504Z,6.63
2018-08-13T15:41:45.216Z,5.50
2018-08-13T15:44:13.933Z,7.50
2018-08-13T15:46:42.659Z,6.90
2018-08-13T15:49:11.381Z,7.43
2018-08-13T15:51:40.073Z,6.53
2018-08-13T15:54:08.822Z,6.80
2018-08-13T15:56:37.539Z,5.30
2018-08-13T15:59:06.285Z,5.17
2018-08-13T16:01:35.005Z,6.47
2018-08-13T16:04:03.835Z,5.27
2018-08-13T16:06:32.531Z,6.63
2018-08-13T16:09:01.260Z,5.97
2018-08-13T16:11:29.979Z,5.90
2018-08-13T16:13:58.673Z,5.23
2018-08-13T16:16:27.353Z,6.30
2018-08-13T16:18:56.055Z,4.60
2018-08-13T16:21:24.763Z,4.83
2018-08-13T16:23:53.504Z,5.83
2018-08-13T16:26:22.218Z,5.77
2018-08-13T16:28:50.938Z,4.60
2018-08-13T16:31:19.654Z,4.43
2018-08-13T16:33:48.636Z,5.17
2018-08-13T16:36:17.344Z,5.57
2018-08-13T16:38:46.069Z,5.60
2018-08-13T16:41:14.776Z,4.90
2018-08-13T16:43:43.486Z,6.17
2018-08-13T16:46:12.209Z,6.33
2018-08-13T16:48:40.930Z,7.17
2018-08-13T16:51:09.649Z,5.83
2018-08-13T16:53:38.369Z,6.53
2018-08-13T16:56:08.124Z,8.23
2018-08-13T16:58:36.873Z,7.00
2018-08-13T17:01:05.622Z,7.60
2018-08-13T17:03:34.348Z,7.30
2018-08-13T17:06:03.056Z,7.50
2018-08-13T17:08:31.775Z,7.17
2018-08-13T17:11:01.171Z,7.53
2018-08-13T17:13:29.964Z,8.07
2018-08-13T17:15:58.745Z,7.80
2018-08-13T17:18:27.468Z,7.90
2018-08-13T17:20:56.226Z,7.03
2018-08-13T17:23:25.175Z,7.47
2018-08-13T17:25:53.927Z,7.27
2018-08-13T17:28:23.340Z,7.33
2018-08-13T17:30:52.120Z,6.67
2018-08-13T17:33:21.405Z,6.47
2018-08-13T17:35:50.203Z,6.43
2018-08-13T17:38:18.996Z,6.20
2018-08-13T17:40:47.811Z,5.60
2018-08-13T17:43:16.847Z,5.30
2018-08-13T17:45:45.356Z,5.50
2018-08-13T17:48:14.063Z,5.63
2018-08-13T17:50:42.804Z,5.33
2018-08-13T17:53:11.780Z,5.60
2018-08-13T17:55:40.526Z,6.03
2018-08-13T17:58:09.357Z,5.90
2018-08-13T18:00:38.132Z,5.77
2018-08-13T18:03:07.093Z,5.63
2018-08-13T18:05:35.858Z,5.40
2018-08-13T18:08:04.679Z,5.30
2018-08-13T18:10:34.435Z,5.40
2018-08-13T18:13:04.746Z,5.00
2018-08-13T18:15:33.478Z,5.40
2018-08-13T18:18:02.236Z,5.50
2018-08-13T18:20:30.978Z,5.17
2018-08-13T18:22:59.796Z,5.13
2018-08-13T18:25:28.581Z,5.40
2018-08-13T18:27:57.319Z,4.90
2018-08-13T18:30:27.555Z,5.50
2018-08-13T18:32:56.492Z,5.30
2018-08-13T18:35:25.495Z,5.60
2018-08-13T18:37:54.312Z,3.77
2018-08-13T18:40:26.117Z,4.10
2018-08-13T18:42:54.884Z,3.47
2018-08-13T18:45:23.631Z,3.40
2018-08-13T18:47:52.687Z,3.30
2018-08-13T18:50:22.173Z,3.90
2018-08-13T18:52:50.971Z,3.40
2018-08-13T18:55:20.929Z,3.73
2018-08-13T18:57:50.147Z,4.13
2018-08-13T19:00:21.843Z,4.30
2018-08-13T19:02:50.683Z,3.73
2018-08-13T19:05:20.344Z,3.70
2018-08-13T19:07:49.499Z,4.30
2018-08-13T19:10:18.994Z,4.00
2018-08-13T19:12:47.831Z,3.83
2018-08-13T19:15:19.240Z,4.30
2018-08-13T19:17:48.120Z,4.20
2018-08-13T19:20:16.856Z,4.13
2018-08-13T19:22:45.843Z,4.10
2018-08-13T19:25:19.161Z,4.87
2018-08-13T19:27:47.979Z,4.10
2018-08-13T19:30:17.816Z,3.77
2018-08-13T19:32:47.664Z,3.53
2018-08-13T19:35:16.438Z,4.17
2018-08-13T19:37:45.424Z,4.07
2018-08-13T19:40:16.051Z,3.63
2018-08-13T19:42:45.690Z,4.03
2018-08-13T19:45:15.436Z,4.33
2018-08-13T19:47:44.817Z,5.00
2018-08-13T19:50:13.848Z,4.37
2018-08-13T19:52:43.881Z,3.90
2018-08-13T19:55:12.935Z,3.93
2018-08-13T19:57:41.705Z,3.97
2018-08-13T20:00:18.579Z,4.17
2018-08-13T20:02:47.880Z,4.37
2018-08-13T20:05:17.061Z,4.70
2018-08-13T20:07:45.778Z,4.43
2018-08-13T20:10:15.291Z,4.07
2018-08-13T20:12:44.673Z,4.80
2018-08-13T20:15:13.472Z,3.03
2018-08-13T20:17:42.490Z,3.33
2018-08-13T20:20:19.205Z,3.20
2018-08-13T20:22:48.476Z,2.60
2018-08-13T20:25:18.171Z,2.23
2018-08-13T20:27:47.354Z,2.90
2018-08-13T20:30:18.880Z,2.70
2018-08-13T20:32:48.798Z,2.60
2018-08-13T20:35:17.640Z,2.10
2018-08-13T20:37:47.332Z,2.60
2018-08-13T20:40:17.643Z,2.87
2018-08-13T20:42:47.004Z,2.47
2018-08-13T20:45:17.488Z,2.57
2018-08-13T20:47:46.637Z,2.43
2018-08-13T20:50:17.297Z,3.20
2018-08-13T20:52:46.599Z,2.33
2018-08-13T20:55:18.200Z,2.43
2018-08-13T20:57:47.808Z,2.83
2018-08-13T21:00:17.923Z,2.40
2018-08-13T21:02:47.488Z,2.60
2018-08-13T21:05:16.804Z,2.73
2018-08-13T21:07:46.408Z,2.97
2018-08-13T21:10:16.627Z,3.03
2018-08-13T21:12:45.404Z,2.60
2018-08-13T21:15:15.157Z,2.73
2018-08-13T21:17:44.035Z,2.63
2018-08-13T21:20:21.865Z,2.67
2018-08-13T21:22:50.680Z,2.90
2018-08-13T21:25:19.509Z,2.90
2018-08-13T21:27:48.394Z,2.67
2018-08-13T21:30:17.122Z,2.80
2018-08-13T21:32:46.064Z,2.13
2018-08-13T21:35:17.887Z,2.73
2018-08-13T21:37:46.872Z,2.63
2018-08-13T21:40:15.609Z,3.00
2018-08-13T21:42:44.598Z,2.80
2018-08-13T21:45:13.698Z,3.47
2018-08-13T21:47:42.498Z,2.33
2018-08-13T21:50:20.828Z,2.47
2018-08-13T21:52:50.332Z,2.97
2018-08-13T21:55:19.277Z,2.57
2018-08-13T21:57:48.100Z,2.20
2018-08-13T22:00:28.252Z,2.20
2018-08-13T22:03:01.280Z,2.30
2018-08-13T22:05:30.804Z,2.17
2018-08-13T22:07:59.820Z,2.37
2018-08-13T22:10:28.554Z,2.17
2018-08-13T22:12:57.307Z,2.60
2018-08-13T22:15:33.034Z,2.37
2018-08-13T22:18:03.957Z,2.63
2018-08-13T22:20:33.971Z,2.30
2018-08-13T22:23:03.536Z,2.60
2018-08-13T22:25:37.335Z,2.60
2018-08-13T22:28:06.560Z,3.17
2018-08-13T22:30:35.480Z,2.60
2018-08-13T22:33:04.247Z,2.17
2018-08-13T22:35:33.005Z,2.83
2018-08-13T22:38:01.752Z,2.43
2018-08-13T22:40:31.141Z,1.80
2018-08-13T22:42:59.951Z,2.53
2018-08-13T22:45:28.603Z,2.20
2018-08-13T22:47:57.379Z,2.40
2018-08-13T22:50:26.936Z,2.40
2018-08-13T22:52:55.693Z,2.40
2018-08-13T22:55:24.484Z,1.97
2018-08-13T22:57:53.340Z,2.63
2018-08-13T23:00:22.277Z,2.70
2018-08-13T23:02:51.711Z,2.43
2018-08-13T23:05:22.417Z,2.90
2018-08-13T23:07:51.639Z,2.37
2018-08-13T23:10:21.987Z,2.50
2018-08-13T23:12:53.600Z,2.90
2018-08-13T23:15:22.537Z,2.23
2018-08-13T23:17:52.379Z,2.30
2018-08-13T23:20:23.204Z,1.70
2018-08-13T23:22:56.252Z,2.50
2018-08-13T23:25:25.564Z,2.90
2018-08-13T23:27:56.315Z,2.53
2018-08-13T23:30:25.299Z,2.40
2018-08-13T23:32:55.524Z,3.80
2018-08-13T23:35:26.470Z,2.60
2018-08-13T23:37:56.260Z,2.53
2018-08-13T23:40:25.692Z,2.83
2018-08-13T23:42:54.727Z,2.77
2018-08-13T23:45:26.583Z,2.33
2018-08-13T23:47:55.687Z,2.57
2018-08-13T23:50:26.043Z,2.50
2018-08-13T23:52:57.050Z,3.23
2018-08-13T23:55:29.664Z,2.97
2018-08-13T23:57:59.144Z,2.33
